createdAt,value
2022-10-28T00:01:30.774Z,2.57
2022-10-28T00:04:01.277Z,2.70
2022-10-28T00:06:32.476Z,2.70
2022-10-28T00:09:00.839Z,2.90
2022-10-28T00:11:32.970Z,2.83
2022-10-28T00:14:04.754Z,2.63
2022-10-28T00:16:36.922Z,3.10
2022-10-28T00:19:08.022Z,2.70
2022-10-28T00:21:38.406Z,2.90
2022-10-28T00:24:08.212Z,2.80
2022-10-28T00:26:42.193Z,2.83
2022-10-28T00:29:12.946Z,2.97
2022-10-28T00:31:42.079Z,2.83
2022-10-28T00:34:14.367Z,3.17
2022-10-28T00:36:45.442Z,2.90
2022-10-28T00:39:16.579Z,2.87
2022-10-28T00:41:48.942Z,2.83
2022-10-28T00:44:56.006Z,2.77
2022-10-28T00:47:41.056Z,3.17
2022-10-28T00:50:41.541Z,3.00
2022-10-28T00:53:15.758Z,3.47
2022-10-28T00:55:45.894Z,3.43
2022-10-28T00:58:17.010Z,3.30
2022-10-28T01:00:45.306Z,3.40
2022-10-28T01:03:13.652Z,3.80
2022-10-28T01:05:44.428Z,4.03
2022-10-28T01:08:13.035Z,3.60
2022-10-28T01:11:36.925Z,4.00
2022-10-28T01:14:33.977Z,4.00
2022-10-28T01:17:31.838Z,4.10
2022-10-28T01:21:12.526Z,4.17
2022-10-28T01:24:00.807Z,3.97
2022-10-28T01:27:08.975Z,3.97
2022-10-28T01:30:08.985Z,3.93
2022-10-28T01:32:52.300Z,4.40
2022-10-28T01:35:27.814Z,3.70
2022-10-28T01:38:22.206Z,4.50
2022-10-28T01:40:58.961Z,4.20
2022-10-28T01:43:32.028Z,4.37
2022-10-28T01:46:05.593Z,4.13
2022-10-28T01:48:42.786Z,3.80
2022-10-28T01:51:18.275Z,3.90
2022-10-28T01:53:51.822Z,3.90
2022-10-28T01:56:28.226Z,4.03
2022-10-28T01:59:01.040Z,4.07
2022-10-28T02:01:32.003Z,3.87
2022-10-28T02:04:02.102Z,3.67
2022-10-28T02:06:33.298Z,4.17
2022-10-28T02:09:16.327Z,3.43
2022-10-28T02:12:28.392Z,3.70
2022-10-28T02:15:28.790Z,3.63
2022-10-28T02:18:14.282Z,4.07
2022-10-28T02:20:52.421Z,4.47
2022-10-28T02:23:29.793Z,4.50
2022-10-28T02:26:02.601Z,4.23
2022-10-28T02:28:42.067Z,4.20
2022-10-28T02:31:23.724Z,4.20
2022-10-28T02:33:55.665Z,4.03
2022-10-28T02:36:26.981Z,3.53
2022-10-28T02:38:57.671Z,4.17
2022-10-28T02:41:32.585Z,3.67
2022-10-28T02:44:06.042Z,3.63
2022-10-28T02:46:36.882Z,3.40
2022-10-28T02:49:09.451Z,3.43
2022-10-28T02:51:42.983Z,3.33
2022-10-28T02:54:15.980Z,3.77
2022-10-28T02:56:52.096Z,3.37
2022-10-28T02:59:20.572Z,3.70
2022-10-28T03:01:48.881Z,3.87
2022-10-28T03:04:17.254Z,3.30
2022-10-28T03:06:47.099Z,3.40
2022-10-28T03:09:15.463Z,3.77
2022-10-28T03:11:43.701Z,3.47
2022-10-28T03:14:14.642Z,3.30
2022-10-28T03:16:44.170Z,3.67
2022-10-28T03:19:12.431Z,3.40
2022-10-28T03:21:40.607Z,3.70
2022-10-28T03:24:10.331Z,3.60
2022-10-28T03:26:38.518Z,3.87
2022-10-28T03:29:06.865Z,3.97
2022-10-28T03:31:35.299Z,3.70
2022-10-28T03:34:03.496Z,3.83
2022-10-28T03:36:31.743Z,3.57
2022-10-28T03:38:59.995Z,3.80
2022-10-28T03:41:29.570Z,3.63
2022-10-28T03:43:58.147Z,3.37
2022-10-28T03:46:26.487Z,3.23
2022-10-28T03:48:54.827Z,3.50
2022-10-28T03:51:22.999Z,4.00
2022-10-28T03:53:51.271Z,3.50
2022-10-28T03:56:19.525Z,3.53
2022-10-28T04:01:19.000Z,4.07
2022-10-28T04:03:47.385Z,3.60
2022-10-28T04:06:16.759Z,3.80
2022-10-28T04:08:44.969Z,3.83
2022-10-28T04:11:13.302Z,3.70
2022-10-28T04:13:41.591Z,3.77
2022-10-28T04:16:11.316Z,3.57
2022-10-28T04:18:39.554Z,3.77
2022-10-28T04:21:07.827Z,3.50
2022-10-28T04:23:36.096Z,3.77
2022-10-28T04:26:04.280Z,3.40
2022-10-28T04:28:32.948Z,3.60
2022-10-28T04:31:02.197Z,3.47
2022-10-28T04:33:31.746Z,3.50
2022-10-28T04:35:59.942Z,3.80
2022-10-28T04:38:28.538Z,3.23
2022-10-28T04:40:57.061Z,3.90
2022-10-28T04:43:25.514Z,4.03
2022-10-28T04:45:53.893Z,3.83
2022-10-28T04:48:22.727Z,3.77
2022-10-28T04:50:53.428Z,4.20
2022-10-28T04:53:22.009Z,3.83
2022-10-28T04:55:50.220Z,3.33
2022-10-28T04:58:18.533Z,3.50
2022-10-28T05:00:46.884Z,3.27
2022-10-28T05:03:15.255Z,3.73
2022-10-28T05:05:43.504Z,3.57
2022-10-28T05:08:13.402Z,3.43
2022-10-28T05:10:41.698Z,4.27
2022-10-28T05:13:10.096Z,3.80
2022-10-28T05:15:38.415Z,3.33
2022-10-28T05:18:06.737Z,3.97
2022-10-28T05:20:35.289Z,3.40
2022-10-28T05:23:03.501Z,3.67
2022-10-28T05:25:33.124Z,4.10
2022-10-28T05:28:01.763Z,3.57
2022-10-28T05:30:30.553Z,3.70
2022-10-28T05:33:02.667Z,3.57
2022-10-28T05:35:31.425Z,3.40
2022-10-28T05:37:59.991Z,3.37
2022-10-28T05:40:28.310Z,3.43
2022-10-28T05:42:57.910Z,3.57
2022-10-28T05:45:26.280Z,3.77
2022-10-28T05:47:54.735Z,3.37
2022-10-28T05:50:23.611Z,3.70
2022-10-28T05:52:54.071Z,3.60
2022-10-28T05:55:24.609Z,3.77
2022-10-28T05:57:54.062Z,3.23
2022-10-28T06:00:26.142Z,3.37
2022-10-28T06:02:54.925Z,3.50
2022-10-28T06:05:23.379Z,3.77
2022-10-28T06:07:51.718Z,3.73
2022-10-28T06:10:19.966Z,3.50
2022-10-28T06:12:46.731Z,3.40
2022-10-28T06:15:15.250Z,3.37
2022-10-28T06:17:48.351Z,3.07
2022-10-28T06:20:17.788Z,3.43
2022-10-28T06:22:50.021Z,3.17
2022-10-28T06:25:20.891Z,3.40
2022-10-28T06:27:53.360Z,3.37
2022-10-28T06:30:22.183Z,3.30
2022-10-28T06:32:52.075Z,3.50
2022-10-28T06:35:20.297Z,3.67
2022-10-28T06:37:48.682Z,3.30
2022-10-28T06:40:17.096Z,3.40
2022-10-28T06:42:45.250Z,3.47
2022-10-28T06:45:13.661Z,3.47
2022-10-28T06:47:43.424Z,3.60
2022-10-28T06:50:13.200Z,3.77
2022-10-28T06:52:41.371Z,3.33
2022-10-28T06:55:10.353Z,3.27
2022-10-28T06:57:38.668Z,3.20
2022-10-28T07:00:08.896Z,3.30
2022-10-28T07:02:40.265Z,3.07
2022-10-28T07:05:13.854Z,3.40
2022-10-28T07:07:42.217Z,2.97
2022-10-28T07:10:10.668Z,2.90
2022-10-28T07:12:38.811Z,3.20
2022-10-28T07:15:08.776Z,3.20
2022-10-28T07:17:36.976Z,3.07
2022-10-28T07:20:05.832Z,2.70
2022-10-28T07:22:35.495Z,3.10
2022-10-28T07:25:03.803Z,2.80
2022-10-28T07:27:32.117Z,2.67
2022-10-28T07:30:00.285Z,2.97
2022-10-28T07:32:32.851Z,2.80
2022-10-28T07:35:01.012Z,3.07
2022-10-28T07:37:29.233Z,2.90
2022-10-28T07:39:58.910Z,2.50
2022-10-28T07:42:27.249Z,2.63
2022-10-28T07:44:55.523Z,2.53
2022-10-28T07:47:23.741Z,2.70
2022-10-28T07:49:54.262Z,2.60
2022-10-28T07:52:22.749Z,2.40
2022-10-28T07:54:52.970Z,2.70
2022-10-28T07:57:22.780Z,2.70
2022-10-28T07:59:51.596Z,2.10
2022-10-28T08:02:22.664Z,2.70
2022-10-28T08:04:51.080Z,2.55
2022-10-28T08:07:20.847Z,2.47
2022-10-28T08:09:49.397Z,2.50
2022-10-28T08:12:18.159Z,2.55
2022-10-28T08:14:47.872Z,2.42
2022-10-28T08:17:16.699Z,2.47
2022-10-28T08:19:44.926Z,2.15
2022-10-28T08:22:13.171Z,2.65
2022-10-28T08:24:41.380Z,2.83
2022-10-28T08:27:09.621Z,2.40
2022-10-28T08:29:37.911Z,2.47
2022-10-28T08:32:09.339Z,2.42
2022-10-28T08:34:40.823Z,2.83
2022-10-28T08:37:11.932Z,2.60
2022-10-28T08:39:40.273Z,2.42
2022-10-28T08:42:30.053Z,2.53
2022-10-28T08:45:36.346Z,2.40
2022-10-28T08:48:19.349Z,2.15
2022-10-28T08:50:54.249Z,2.20
2022-10-28T08:53:28.270Z,1.92
2022-10-28T08:56:14.758Z,2.22
2022-10-28T08:58:45.349Z,2.08
2022-10-28T09:01:22.570Z,2.28
2022-10-28T09:03:54.482Z,1.95
2022-10-28T09:06:23.097Z,1.92
2022-10-28T09:08:52.940Z,2.40
2022-10-28T09:11:49.440Z,2.10
2022-10-28T09:14:38.234Z,2.10
2022-10-28T09:17:18.704Z,2.10
2022-10-28T09:19:51.181Z,2.20
2022-10-28T09:22:26.135Z,2.00
2022-10-28T09:24:57.726Z,2.13
2022-10-28T09:27:56.889Z,1.90
2022-10-28T09:30:37.156Z,1.80
2022-10-28T09:33:48.412Z,2.00
2022-10-28T09:36:24.857Z,1.92
2022-10-28T09:38:57.900Z,2.25
2022-10-28T09:41:29.959Z,2.08
2022-10-28T09:44:07.916Z,1.63
2022-10-28T09:46:37.817Z,1.95
2022-10-28T09:49:14.166Z,1.83
2022-10-28T09:51:51.141Z,2.05
2022-10-28T09:54:23.600Z,1.90
2022-10-28T09:56:53.849Z,2.05
2022-10-28T09:59:23.084Z,2.28
2022-10-28T10:01:52.130Z,1.90
2022-10-28T10:04:24.165Z,2.17
2022-10-28T10:06:58.835Z,2.03
2022-10-28T10:09:30.052Z,2.25
2022-10-28T10:12:03.803Z,2.25
2022-10-28T10:14:39.822Z,1.92
2022-10-28T10:17:16.948Z,2.15
2022-10-28T10:20:06.513Z,2.15
2022-10-28T10:22:38.947Z,2.20
2022-10-28T10:25:29.935Z,2.17
2022-10-28T10:28:01.730Z,1.88
2022-10-28T10:30:34.719Z,2.00
2022-10-28T10:33:04.351Z,2.22
2022-10-28T10:35:34.743Z,1.95
2022-10-28T10:38:07.371Z,1.80
2022-10-28T10:40:39.097Z,2.10
2022-10-28T10:43:30.649Z,1.95
2022-10-28T10:46:05.027Z,1.85
2022-10-28T10:48:36.340Z,2.00
2022-10-28T10:51:10.797Z,1.90
2022-10-28T10:53:41.711Z,1.90
2022-10-28T10:56:13.135Z,1.88
2022-10-28T10:58:52.815Z,2.00
2022-10-28T11:01:24.323Z,1.90
2022-10-28T11:06:37.743Z,2.17
2022-10-28T11:09:21.433Z,1.75
2022-10-28T11:11:49.676Z,1.98
2022-10-28T11:14:25.550Z,1.90
2022-10-28T11:16:55.406Z,2.08
2022-10-28T11:19:25.510Z,2.25
2022-10-28T11:22:12.954Z,1.90
2022-10-28T11:25:11.363Z,2.47
2022-10-28T11:27:56.318Z,2.08
2022-10-28T11:30:42.026Z,2.45
2022-10-28T11:33:29.945Z,2.08
2022-10-28T11:36:12.315Z,2.15
2022-10-28T11:39:07.407Z,2.40
2022-10-28T11:41:54.294Z,2.30
2022-10-28T11:57:38.303Z,2.20
2022-10-28T12:00:35.280Z,1.73
2022-10-28T12:03:43.327Z,2.30
2022-10-28T12:06:24.277Z,2.15
2022-10-28T12:09:12.561Z,2.03
2022-10-28T12:11:57.443Z,2.03
2022-10-28T12:14:35.151Z,2.05
2022-10-28T12:17:14.623Z,2.35
2022-10-28T12:19:47.964Z,1.80
2022-10-28T12:22:25.155Z,1.80
2022-10-28T12:24:54.732Z,1.75
2022-10-28T12:27:28.404Z,2.00
2022-10-28T12:30:05.959Z,1.80
2022-10-28T12:32:39.396Z,2.15
2022-10-28T12:35:17.824Z,2.20
2022-10-28T12:37:54.704Z,2.20
2022-10-28T12:40:27.441Z,2.13
2022-10-28T12:43:03.124Z,2.17
2022-10-28T12:45:34.625Z,2.10
2022-10-28T12:48:14.468Z,2.10
2022-10-28T12:50:52.036Z,2.00
2022-10-28T12:53:32.329Z,2.30
2022-10-28T12:56:03.773Z,2.35
2022-10-28T12:58:36.519Z,2.20
2022-10-28T13:01:11.708Z,2.10
2022-10-28T13:03:41.535Z,1.83
2022-10-28T13:06:55.938Z,2.35
2022-10-28T13:09:46.470Z,2.33
2022-10-28T13:13:00.382Z,1.90
2022-10-28T13:16:01.460Z,1.98
2022-10-28T13:18:58.717Z,2.15
2022-10-28T13:21:48.220Z,2.15
2022-10-28T13:24:25.636Z,2.15
2022-10-28T13:26:55.078Z,2.00
2022-10-28T13:29:26.466Z,2.03
2022-10-28T13:31:55.876Z,2.40
2022-10-28T13:34:34.138Z,2.20
2022-10-28T13:37:05.126Z,2.10
2022-10-28T13:39:46.189Z,1.98
2022-10-28T13:42:52.641Z,1.92
2022-10-28T13:45:48.368Z,2.08
2022-10-28T13:48:49.238Z,1.90
2022-10-28T13:51:47.437Z,1.98
2022-10-28T13:54:32.529Z,2.08
2022-10-28T13:57:08.588Z,1.92
2022-10-28T13:59:53.237Z,1.90
2022-10-28T14:02:35.910Z,1.63
2022-10-28T14:05:08.824Z,1.80
2022-10-28T14:07:51.453Z,1.75
2022-10-28T14:10:28.563Z,1.95
2022-10-28T14:13:00.043Z,1.98
2022-10-28T14:15:32.214Z,2.05
2022-10-28T14:18:15.970Z,1.88
2022-10-28T14:21:01.820Z,1.80
2022-10-28T14:24:31.581Z,1.90
2022-10-28T14:27:21.646Z,1.73
2022-10-28T14:30:12.399Z,1.92
2022-10-28T14:32:52.891Z,1.80
2022-10-28T14:35:31.221Z,1.70
2022-10-28T14:38:52.200Z,1.90
2022-10-28T14:41:53.573Z,1.70
2022-10-28T14:44:45.547Z,1.70
2022-10-28T14:47:55.615Z,1.95
2022-10-28T14:50:28.122Z,1.88
2022-10-28T14:52:58.106Z,1.90
2022-10-28T14:55:31.359Z,1.42
2022-10-28T14:58:25.998Z,1.70
2022-10-28T15:01:09.409Z,2.30
2022-10-28T15:03:39.673Z,1.98
2022-10-28T15:06:33.977Z,1.77
2022-10-28T15:09:17.023Z,1.88
2022-10-28T15:11:49.253Z,1.92
2022-10-28T15:14:34.653Z,1.63
2022-10-28T15:17:13.947Z,1.60
2022-10-28T15:19:42.940Z,1.85
2022-10-28T15:22:18.515Z,1.90
2022-10-28T15:25:02.339Z,1.58
2022-10-28T15:27:33.325Z,1.70
2022-10-28T15:30:04.145Z,1.45
2022-10-28T15:32:36.078Z,1.55
2022-10-28T15:35:39.098Z,1.70
2022-10-28T15:38:41.730Z,1.33
2022-10-28T15:41:42.549Z,1.63
2022-10-28T15:44:35.343Z,1.58
2022-10-28T15:47:19.968Z,1.30
2022-10-28T15:50:06.391Z,1.40
2022-10-28T15:52:41.544Z,1.63
2022-10-28T15:56:02.516Z,1.70
2022-10-28T15:58:43.215Z,1.58
2022-10-28T16:01:29.231Z,1.88
2022-10-28T16:03:59.412Z,1.98
2022-10-28T16:06:31.569Z,1.50
2022-10-28T16:09:16.384Z,1.67
2022-10-28T16:11:48.725Z,1.70
2022-10-28T16:14:33.388Z,1.73
2022-10-28T16:17:19.495Z,1.63
2022-10-28T16:19:55.306Z,2.00
2022-10-28T16:22:26.208Z,1.80
2022-10-28T16:24:55.971Z,2.10
2022-10-28T16:27:26.811Z,1.90
2022-10-28T16:29:55.685Z,1.83
2022-10-28T16:32:28.867Z,1.65
2022-10-28T16:34:58.881Z,2.03
2022-10-28T16:37:30.356Z,1.63
2022-10-28T16:39:58.867Z,1.77
2022-10-28T16:42:28.033Z,1.80
2022-10-28T16:44:56.320Z,1.80
2022-10-28T16:47:26.697Z,1.73
2022-10-28T16:49:57.534Z,1.77
2022-10-28T16:52:30.914Z,1.80
2022-10-28T16:54:59.908Z,1.83
2022-10-28T16:57:28.854Z,1.77
2022-10-28T16:59:57.106Z,1.95
2022-10-28T17:02:29.823Z,1.65
2022-10-28T17:04:59.241Z,1.90
2022-10-28T17:07:30.079Z,2.20
2022-10-28T17:09:58.432Z,1.90
2022-10-28T17:12:28.758Z,1.90
2022-10-28T17:14:57.341Z,1.67
2022-10-28T17:17:25.804Z,1.90
2022-10-28T17:19:54.398Z,1.80
2022-10-28T17:22:23.217Z,1.85
2022-10-28T17:24:54.479Z,1.90
2022-10-28T17:27:23.065Z,1.88
2022-10-28T17:29:51.706Z,2.28
2022-10-28T17:32:20.128Z,1.92
2022-10-28T17:34:48.678Z,2.10
2022-10-28T17:37:17.083Z,1.98
2022-10-28T17:39:45.714Z,1.90
2022-10-28T17:42:15.694Z,1.77
2022-10-28T17:44:44.060Z,1.90
2022-10-28T17:47:13.292Z,2.05
2022-10-28T17:49:41.608Z,1.88
2022-10-28T17:52:10.181Z,1.70
2022-10-28T17:54:38.628Z,1.65
2022-10-28T17:57:07.221Z,1.88
2022-10-28T17:59:36.923Z,1.70
2022-10-28T18:02:05.855Z,1.80
2022-10-28T18:04:35.007Z,2.15
2022-10-28T18:07:03.242Z,1.90
2022-10-28T18:09:32.918Z,1.77
2022-10-28T18:12:02.910Z,1.90
2022-10-28T18:14:31.596Z,1.83
2022-10-28T18:17:01.268Z,1.55
2022-10-28T18:19:29.505Z,1.88
2022-10-28T18:21:57.830Z,1.40
2022-10-28T18:24:26.267Z,1.45
2022-10-28T18:26:57.139Z,1.50
2022-10-28T18:29:25.662Z,1.42
2022-10-28T18:31:53.944Z,1.20
2022-10-28T18:34:24.386Z,1.20
2022-10-28T18:36:52.799Z,1.48
2022-10-28T18:39:21.016Z,1.20
2022-10-28T18:41:49.247Z,1.60
2022-10-28T18:44:20.100Z,1.23
2022-10-28T18:46:48.285Z,1.52
2022-10-28T18:49:16.454Z,1.30
2022-10-28T18:51:47.694Z,1.40
2022-10-28T18:54:16.850Z,1.40
2022-10-28T18:56:48.025Z,1.30
2022-10-28T18:59:17.559Z,1.17
2022-10-28T19:01:46.940Z,1.17
2022-10-28T19:04:15.519Z,1.58
2022-10-28T19:06:46.661Z,1.48
2022-10-28T19:09:16.773Z,1.52
2022-10-28T19:11:45.541Z,1.65
2022-10-28T19:14:15.778Z,1.30
2022-10-28T19:16:45.982Z,1.20
2022-10-28T19:19:15.554Z,1.23
2022-10-28T19:21:46.715Z,1.15
2022-10-28T19:24:16.750Z,1.00
2022-10-28T19:26:46.198Z,1.00
2022-10-28T19:29:14.867Z,1.15
2022-10-28T19:31:43.513Z,1.20
2022-10-28T19:34:11.856Z,1.15
2022-10-28T19:36:40.149Z,1.15
2022-10-28T19:39:10.070Z,0.98
2022-10-28T19:41:38.417Z,1.08
2022-10-28T19:44:07.769Z,1.17
2022-10-28T19:46:37.503Z,1.00
2022-10-28T19:49:08.111Z,1.10
2022-10-28T19:51:42.076Z,0.93
2022-10-28T19:54:15.449Z,1.17
2022-10-28T19:56:45.771Z,1.10
2022-10-28T19:59:15.095Z,1.05
2022-10-28T20:01:43.772Z,1.20
2022-10-28T20:04:15.091Z,0.98
2022-10-28T20:06:43.504Z,0.98
2022-10-28T20:09:13.561Z,0.98
2022-10-28T20:11:42.129Z,0.98
2022-10-28T20:14:15.276Z,0.85
2022-10-28T20:16:45.965Z,0.80
2022-10-28T20:19:14.357Z,0.95
2022-10-28T20:21:44.641Z,0.80
2022-10-28T20:24:15.757Z,0.70
2022-10-28T20:26:44.119Z,0.75
2022-10-28T20:29:12.775Z,0.70
2022-10-28T20:31:41.158Z,0.80
2022-10-28T20:34:09.855Z,0.70
2022-10-28T20:36:40.001Z,0.60
2022-10-28T20:39:15.416Z,0.80
2022-10-28T20:41:45.883Z,0.60
2022-10-28T20:44:15.043Z,0.60
2022-10-28T20:46:45.158Z,0.60
2022-10-28T20:49:14.717Z,0.60
2022-10-28T20:51:44.511Z,0.60
2022-10-28T20:54:14.865Z,0.60
2022-10-28T20:56:43.354Z,0.63
2022-10-28T20:59:12.261Z,0.73
2022-10-28T21:01:42.445Z,0.68
2022-10-28T21:07:10.159Z,0.52
2022-10-28T21:09:39.713Z,0.65
2022-10-28T21:12:08.480Z,0.70
2022-10-28T21:14:36.775Z,0.50
2022-10-28T21:17:05.102Z,0.67
2022-10-28T21:19:33.473Z,0.77
2022-10-28T21:22:01.831Z,0.68
2022-10-28T21:24:30.480Z,0.60
2022-10-28T21:27:00.978Z,0.60
2022-10-28T21:29:29.216Z,0.57
2022-10-28T21:31:57.499Z,0.90
2022-10-28T21:34:25.725Z,0.53
2022-10-28T21:36:53.942Z,0.77
2022-10-28T21:39:22.161Z,0.70
2022-10-28T21:41:50.338Z,1.00
2022-10-28T21:44:19.994Z,0.67
2022-10-28T21:46:48.491Z,0.70
2022-10-28T21:49:16.784Z,0.80
2022-10-28T21:51:45.197Z,0.77
2022-10-28T21:54:13.378Z,0.60
2022-10-28T21:56:41.636Z,0.83
2022-10-28T21:59:10.014Z,0.80
2022-10-28T22:01:39.660Z,0.90
2022-10-28T22:04:09.599Z,0.80
2022-10-28T22:06:37.888Z,0.90
2022-10-28T22:09:06.266Z,0.87
2022-10-28T22:11:34.606Z,0.90
2022-10-28T22:14:04.957Z,0.67
2022-10-28T22:16:35.317Z,0.70
2022-10-28T22:19:09.252Z,0.80
2022-10-28T22:21:40.096Z,0.87
2022-10-28T22:24:09.755Z,1.10
2022-10-28T22:26:38.189Z,0.80
2022-10-28T22:29:06.481Z,0.70
2022-10-28T22:31:35.327Z,0.90
2022-10-28T22:34:06.356Z,0.93
2022-10-28T22:36:34.596Z,0.60
2022-10-28T22:39:02.904Z,0.83
2022-10-28T22:41:34.161Z,1.10
2022-10-28T22:44:04.616Z,0.80
2022-10-28T22:46:36.519Z,0.97
2022-10-28T22:49:07.091Z,0.77
2022-10-28T22:51:35.360Z,0.83
2022-10-28T22:54:03.591Z,1.20
2022-10-28T22:56:31.859Z,1.00
2022-10-28T22:59:02.372Z,1.00
2022-10-28T23:01:31.220Z,1.00
2022-10-28T23:04:00.925Z,1.00
2022-10-28T23:06:31.262Z,1.00
2022-10-28T23:08:59.602Z,0.80
2022-10-28T23:11:28.036Z,0.90
2022-10-28T23:13:57.085Z,1.20
2022-10-28T23:16:26.348Z,0.90
2022-10-28T23:18:54.640Z,1.00
2022-10-28T23:21:25.124Z,0.90
2022-10-28T23:24:00.454Z,0.70
2022-10-28T23:26:30.418Z,1.10
2022-10-28T23:29:00.683Z,1.10
2022-10-28T23:31:29.347Z,0.93
2022-10-28T23:33:59.137Z,1.20
2022-10-28T23:36:27.374Z,0.80
2022-10-28T23:38:59.059Z,0.70
2022-10-28T23:41:27.443Z,0.80
2022-10-28T23:43:55.736Z,0.80
2022-10-28T23:46:25.005Z,0.80
2022-10-28T23:48:53.453Z,1.00
2022-10-28T23:51:21.801Z,1.07
2022-10-28T23:53:50.034Z,0.90
2022-10-28T23:56:19.663Z,0.90
2022-10-28T23:58:48.026Z,0.53
